createdAt,value
2022-12-23T00:04:11.216Z,19.73
2022-12-23T00:09:14.844Z,16.90
2022-12-23T00:14:36.569Z,16.37
2022-12-23T00:19:39.728Z,17.93
2022-12-23T00:24:43.220Z,19.27
2022-12-23T00:29:46.640Z,20.90
2022-12-23T05:33:49.638Z,18.83
2022-12-23T05:38:52.506Z,17.67
2022-12-23T05:43:55.302Z,19.50
2022-12-23T05:48:58.126Z,16.07
2022-12-23T05:54:01.207Z,18.90
2022-12-23T05:59:04.083Z,14.73
2022-12-23T06:04:07.030Z,20.33
2022-12-23T06:09:10.448Z,23.03
2022-12-23T06:14:13.358Z,17.03
2022-12-23T06:19:16.180Z,16.17
2022-12-23T06:24:19.049Z,12.13
2022-12-23T06:29:21.872Z,14.50
2022-12-23T06:34:24.825Z,17.83
2022-12-23T06:39:29.638Z,17.60
2022-12-23T06:44:32.482Z,17.47
2022-12-23T06:49:35.353Z,13.43
2022-12-23T06:54:38.162Z,13.23
2022-12-23T06:59:41.017Z,14.57
2022-12-23T07:04:43.855Z,12.57
2022-12-23T07:09:46.725Z,13.67
2022-12-23T07:14:49.563Z,16.70
2022-12-23T07:19:52.404Z,16.73
2022-12-23T07:24:55.255Z,18.50
2022-12-23T07:29:58.074Z,20.87
2022-12-23T07:35:00.877Z,24.17
2022-12-23T07:40:08.494Z,23.30
2022-12-23T07:45:12.121Z,21.93
2022-12-23T07:50:15.107Z,20.70
2022-12-23T07:55:18.096Z,19.60
2022-12-23T08:00:21.783Z,17.83
2022-12-23T08:05:24.697Z,18.63
2022-12-23T08:10:27.900Z,17.23
2022-12-23T08:15:30.747Z,16.33
2022-12-23T08:20:33.600Z,19.43
2022-12-23T08:25:36.483Z,18.47
2022-12-23T08:30:39.306Z,18.77
2022-12-23T08:35:42.131Z,23.90
2022-12-23T08:40:44.972Z,16.53
2022-12-23T08:45:47.860Z,18.43
2022-12-23T08:50:50.694Z,21.80
2022-12-23T08:55:53.530Z,22.50
2022-12-23T09:00:56.460Z,23.67
2022-12-23T09:05:59.332Z,22.47
2022-12-23T09:11:02.635Z,18.87
2022-12-23T09:16:06.108Z,21.40
2022-12-23T09:21:15.497Z,18.50
2022-12-23T09:26:21.366Z,15.13
2022-12-23T09:31:27.875Z,17.80
2022-12-23T09:36:35.421Z,15.67
2022-12-23T09:41:48.495Z,15.17
2022-12-23T09:47:00.853Z,14.80
2022-12-23T09:52:06.070Z,12.17
2022-12-23T09:57:26.861Z,13.03
2022-12-23T10:03:03.799Z,15.63
2022-12-23T10:08:29.019Z,16.53
2022-12-23T10:13:39.714Z,13.73
2022-12-23T10:18:51.815Z,17.10
2022-12-23T10:23:55.348Z,17.83
2022-12-23T10:29:18.383Z,15.20
2022-12-23T10:34:46.276Z,14.13
2022-12-23T10:40:05.387Z,16.07
2022-12-23T10:45:25.872Z,10.77
2022-12-23T10:50:51.874Z,9.03
2022-12-23T10:55:56.262Z,8.70
2022-12-23T11:01:08.454Z,11.57
2022-12-23T11:06:16.960Z,12.40
2022-12-23T11:11:19.854Z,11.33
2022-12-23T11:16:28.366Z,11.83
2022-12-23T11:21:32.756Z,14.30
2022-12-23T11:26:36.356Z,12.03
2022-12-23T11:31:39.407Z,12.00
2022-12-23T11:36:42.751Z,11.87
2022-12-23T11:41:48.238Z,14.60
2022-12-23T11:46:51.634Z,14.17
2022-12-23T11:52:10.767Z,11.67
2022-12-23T11:57:19.010Z,13.50
2022-12-23T12:02:24.627Z,17.00
2022-12-23T12:07:27.790Z,16.87
2022-12-23T12:12:30.996Z,11.53
2022-12-23T12:17:45.565Z,8.17
2022-12-23T12:23:10.809Z,12.20
2022-12-23T12:28:20.046Z,10.37
2022-12-23T12:33:28.826Z,13.93
2022-12-23T12:38:33.267Z,10.70
2022-12-23T12:43:38.407Z,10.30
2022-12-23T12:49:17.296Z,10.73
2022-12-23T12:54:57.725Z,13.97
2022-12-23T13:00:05.919Z,10.87
2022-12-23T13:05:18.428Z,12.40
2022-12-23T13:10:27.139Z,15.10
2022-12-23T13:15:44.567Z,13.97
2022-12-23T13:20:54.702Z,14.03
2022-12-23T13:26:02.822Z,15.97
2022-12-23T13:31:17.417Z,14.20
2022-12-23T13:36:29.388Z,14.27
2022-12-23T13:41:34.849Z,14.17
2022-12-23T13:46:56.615Z,13.37
2022-12-23T13:52:16.172Z,11.77
2022-12-23T13:57:18.946Z,15.87
2022-12-23T14:02:50.046Z,13.27
2022-12-23T14:07:54.556Z,14.47
2022-12-23T14:13:06.823Z,13.73
2022-12-23T14:18:42.991Z,12.07
2022-12-23T14:24:06.908Z,9.77
2022-12-23T14:29:12.848Z,10.60
2022-12-23T14:34:18.368Z,13.17
2022-12-23T14:39:32.980Z,9.80
2022-12-23T14:44:36.958Z,12.63
2022-12-23T14:49:43.063Z,11.27
2022-12-23T14:55:00.359Z,11.83
2022-12-23T15:00:10.744Z,15.20
2022-12-23T15:05:13.930Z,12.53
2022-12-23T15:10:19.289Z,13.57
2022-12-23T15:15:27.858Z,16.80
2022-12-23T15:20:30.690Z,12.70
2022-12-23T15:25:35.026Z,14.03
2022-12-23T15:30:51.500Z,13.97
2022-12-23T15:35:55.705Z,16.33
2022-12-23T15:41:06.744Z,16.43
2022-12-23T15:46:15.278Z,15.50
2022-12-23T15:51:58.254Z,21.53
2022-12-23T15:56:56.194Z,19.10
2022-12-23T16:01:59.398Z,25.90
2022-12-23T16:07:03.214Z,21.60
2022-12-23T16:12:21.440Z,19.20
2022-12-23T16:17:34.990Z,24.30
2022-12-23T16:22:38.299Z,20.40
2022-12-23T16:28:04.343Z,20.30
2022-12-23T16:33:35.167Z,24.80
2022-12-23T16:38:37.977Z,20.70
2022-12-23T16:43:47.528Z,21.23
2022-12-23T16:48:55.953Z,17.10
2022-12-23T16:53:58.971Z,17.73
2022-12-23T16:59:02.258Z,18.97
2022-12-23T17:04:06.199Z,20.30
2022-12-23T17:09:10.265Z,19.30
2022-12-23T17:14:21.460Z,25.43
2022-12-23T17:19:28.789Z,19.73
2022-12-23T17:24:32.657Z,18.87
2022-12-23T17:29:35.602Z,18.07
2022-12-23T17:34:38.600Z,21.73
2022-12-23T17:39:42.399Z,21.87
2022-12-23T17:44:45.302Z,22.83
2022-12-23T17:49:49.171Z,21.40
2022-12-23T17:54:52.365Z,19.73
2022-12-23T17:59:56.875Z,20.47
2022-12-23T18:05:00.202Z,20.30
2022-12-23T18:10:03.092Z,17.77
2022-12-23T18:15:07.546Z,18.80
2022-12-23T18:20:18.689Z,21.60
2022-12-23T18:25:25.528Z,20.67
2022-12-23T18:30:28.412Z,19.40
2022-12-23T18:35:33.556Z,20.97
2022-12-23T18:40:36.423Z,20.17
2022-12-23T18:45:41.899Z,24.40
2022-12-23T18:50:46.720Z,19.30
2022-12-23T18:55:50.599Z,26.20
2022-12-23T19:00:54.306Z,24.30
2022-12-23T19:05:58.071Z,23.67
2022-12-23T19:11:01.328Z,27.50
2022-12-23T19:16:04.480Z,20.73
2022-12-23T19:21:09.177Z,19.07
2022-12-23T19:26:13.782Z,20.67
2022-12-23T19:31:17.495Z,22.00
2022-12-23T19:36:25.149Z,23.10
2022-12-23T19:41:28.253Z,22.67
2022-12-23T19:46:31.182Z,23.80
2022-12-23T19:51:34.065Z,18.67
2022-12-23T19:56:37.003Z,18.30
2022-12-23T20:01:39.909Z,21.27
2022-12-23T20:06:43.879Z,23.30
2022-12-23T20:11:48.386Z,20.63
2022-12-23T20:16:51.221Z,19.33
2022-12-23T20:21:54.048Z,18.87
2022-12-23T20:26:57.964Z,21.47
2022-12-23T20:32:00.754Z,18.77
2022-12-23T20:37:04.643Z,15.80
2022-12-23T20:42:07.542Z,21.43
2022-12-23T20:47:10.461Z,17.27
2022-12-23T20:52:13.305Z,19.40
2022-12-23T20:57:16.174Z,22.17
2022-12-23T21:02:19.372Z,17.40
2022-12-23T21:07:22.314Z,15.60
2022-12-23T21:12:25.194Z,18.90
2022-12-23T21:17:29.646Z,16.23
2022-12-23T21:22:32.515Z,14.60
2022-12-23T21:27:35.429Z,17.33
2022-12-23T21:32:38.310Z,14.53
2022-12-23T21:37:41.144Z,17.67
2022-12-23T21:42:44.003Z,16.83
2022-12-23T21:47:46.838Z,14.87
2022-12-23T21:52:49.655Z,14.10
2022-12-23T21:57:52.502Z,16.60
2022-12-23T22:02:55.304Z,11.30
2022-12-23T22:07:58.230Z,12.17
2022-12-23T22:13:01.088Z,20.07
2022-12-23T22:18:03.957Z,12.10
2022-12-23T22:23:07.029Z,14.10
2022-12-23T22:28:09.818Z,13.90
2022-12-23T22:33:12.732Z,12.77
2022-12-23T22:38:15.541Z,15.53
2022-12-23T22:43:18.973Z,16.80
2022-12-23T22:48:21.828Z,15.73
2022-12-23T22:53:29.588Z,14.83
2022-12-23T22:58:34.481Z,15.30
2022-12-23T23:03:37.315Z,17.03
2022-12-23T23:08:42.639Z,18.40
2022-12-23T23:13:45.518Z,16.23
2022-12-23T23:18:48.643Z,16.60
2022-12-23T23:23:51.579Z,15.03
2022-12-23T23:28:55.761Z,18.93
2022-12-23T23:33:58.629Z,12.93
2022-12-23T23:39:01.534Z,15.43
2022-12-23T23:44:04.680Z,14.17
2022-12-23T23:49:07.478Z,17.83
2022-12-23T23:54:10.579Z,14.13
2022-12-23T23:59:13.471Z,16.07
